Time;durP1;ratioP1;P1;durP2;ratioP2;P2;SDS_P1;SDS_P2;PMS_P1;PMS_P2;Temp;Humidity;BMP_temperature;BMP_pressure;BME280_temperature;BME280_humidity;BME280_pressure;Samples;Min_cycle;Max_cycle;Signal;HPM_P1;HPM_P2
2021/05/07 00:02:22;;;;;;;20.65;14.20;;;5.70;85.20;;;;;;5010500;28;20084;-70
2021/05/07 00:04:48;;;;;;;19.70;14.30;;;5.70;85.30;;;;;;5024537;28;20040;-71
2021/05/07 00:07:14;;;;;;;19.00;14.55;;;5.70;85.20;;;;;;5015307;28;20916;-70
2021/05/07 00:09:39;;;;;;;19.38;15.23;;;5.70;85.00;;;;;;5015346;28;20453;-70
2021/05/07 00:12:08;;;;;;;22.13;15.57;;;5.60;85.00;;;;;;5020707;28;20416;-70
2021/05/07 00:14:33;;;;;;;20.17;14.48;;;5.60;84.80;;;;;;5019507;28;20412;-70
2021/05/07 00:16:59;;;;;;;21.52;15.25;;;5.60;84.80;;;;;;5010965;28;20089;-71
2021/05/07 00:19:25;;;;;;;17.60;14.80;;;5.60;84.90;;;;;;5013202;28;20033;-71
2021/05/07 00:21:51;;;;;;;20.52;15.73;;;5.50;84.90;;;;;;5017599;28;20125;-73
2021/05/07 00:24:16;;;;;;;21.95;14.85;;;5.50;85.00;;;;;;5022814;28;20039;-72
2021/05/07 00:26:42;;;;;;;17.73;15.10;;;5.40;84.90;;;;;;5023557;28;20469;-71
2021/05/07 00:29:08;;;;;;;20.40;15.43;;;5.40;84.90;;;;;;5023488;28;20050;-73
2021/05/07 00:31:33;;;;;;;20.55;15.68;;;5.40;84.90;;;;;;5023882;28;20106;-70
2021/05/07 00:33:59;;;;;;;20.17;15.52;;;5.40;85.00;;;;;;5010426;28;20045;-71
2021/05/07 00:36:24;;;;;;;20.55;15.20;;;5.40;85.00;;;;;;5020497;28;21039;-72
2021/05/07 00:38:50;;;;;;;21.58;16.38;;;5.40;84.70;;;;;;5023822;28;20029;-70
2021/05/07 00:41:16;;;;;;;20.92;15.75;;;5.30;84.90;;;;;;4996973;28;20165;-70
2021/05/07 00:43:42;;;;;;;21.38;15.85;;;5.40;84.90;;;;;;5001613;28;20038;-71
2021/05/07 00:46:07;;;;;;;23.50;17.30;;;5.30;84.80;;;;;;5002822;28;20348;-72
2021/05/07 00:48:35;;;;;;;20.95;16.38;;;5.20;85.00;;;;;;4995452;28;20161;-71
2021/05/07 00:51:00;;;;;;;19.02;14.95;;;5.20;85.10;;;;;;4996358;28;20132;-69
2021/05/07 00:53:29;;;;;;;22.15;16.88;;;5.10;85.00;;;;;;5007463;28;20124;-70
2021/05/07 00:55:55;;;;;;;27.88;17.70;;;5.10;85.00;;;;;;5022114;28;20038;-73
2021/05/07 00:58:22;;;;;;;22.45;17.13;;;5.10;85.10;;;;;;4995179;28;20038;-70
2021/05/07 01:00:50;;;;;;;22.98;17.38;;;5.10;85.20;;;;;;4998441;28;20034;-70
2021/05/07 01:03:15;;;;;;;25.88;18.58;;;5.10;85.20;;;;;;5010581;28;20030;-73
2021/05/07 01:05:41;;;;;;;25.23;17.80;;;5.10;85.20;;;;;;4998480;28;20069;-69
2021/05/07 01:08:07;;;;;;;25.08;17.73;;;5.10;85.20;;;;;;5011192;28;20040;-70
2021/05/07 01:10:32;;;;;;;23.50;18.80;;;5.10;85.20;;;;;;5021307;28;20045;-73
2021/05/07 01:12:58;;;;;;;27.27;18.95;;;5.00;85.40;;;;;;5017895;28;20041;-72
2021/05/07 01:15:25;;;;;;;23.13;17.73;;;5.00;85.40;;;;;;5019910;28;20120;-71
2021/05/07 01:17:57;;;;;;;26.98;19.02;;;5.00;85.50;;;;;;5022420;28;20038;-72
2021/05/07 01:20:30;;;;;;;27.13;19.33;;;5.00;85.60;;;;;;5019006;28;20041;-69
2021/05/07 01:22:58;;;;;;;26.23;19.50;;;5.00;85.60;;;;;;5023063;28;20069;-70
2021/05/07 01:25:34;;;;;;;26.48;19.83;;;5.00;85.70;;;;;;5025111;28;20416;-70
2021/05/07 01:28:03;;;;;;;26.33;20.02;;;4.90;85.60;;;;;;5023067;28;20050;-70
2021/05/07 01:30:35;;;;;;;26.25;20.42;;;5.00;85.50;;;;;;5005531;28;20132;-71
2021/05/07 01:33:01;;;;;;;29.67;20.65;;;4.90;85.70;;;;;;5019665;28;20030;-70
2021/05/07 01:35:29;;;;;;;29.70;21.15;;;4.90;85.70;;;;;;5022574;28;20040;-70
2021/05/07 01:37:57;;;;;;;30.90;21.55;;;4.90;85.60;;;;;;5022928;28;20045;-72
2021/05/07 01:40:25;;;;;;;27.95;20.55;;;4.80;85.70;;;;;;5024959;28;20029;-69
2021/05/07 01:42:53;;;;;;;25.65;18.77;;;4.80;85.80;;;;;;5026162;28;20029;-70
2021/05/07 01:45:21;;;;;;;29.55;20.98;;;4.80;85.60;;;;;;5018278;28;20033;-71
2021/05/07 01:47:48;;;;;;;28.73;21.00;;;4.80;85.60;;;;;;5025266;28;20049;-69
2021/05/07 01:50:19;;;;;;;29.38;20.92;;;4.80;85.50;;;;;;5014519;28;20046;-70
2021/05/07 01:52:45;;;;;;;27.85;20.10;;;4.80;85.50;;;;;;5004803;28;20050;-73
2021/05/07 01:55:14;;;;;;;28.67;21.13;;;4.90;85.40;;;;;;5017461;28;20065;-71
2021/05/07 01:57:40;;;;;;;29.90;22.02;;;4.80;85.30;;;;;;5026716;28;20045;-70
2021/05/07 02:00:07;;;;;;;30.25;20.60;;;4.80;85.40;;;;;;5024515;28;20033;-72
2021/05/07 02:02:33;;;;;;;28.25;20.80;;;4.80;85.40;;;;;;5022938;28;20361;-69
2021/05/07 02:04:59;;;;;;;30.15;20.23;;;4.80;85.20;;;;;;5032251;28;20037;-69
2021/05/07 02:07:25;;;;;;;29.92;19.65;;;4.90;85.20;;;;;;5022654;28;20034;-73
2021/05/07 02:09:50;;;;;;;29.40;20.05;;;4.80;85.10;;;;;;4999748;28;20030;-70
2021/05/07 02:12:16;;;;;;;26.42;19.42;;;4.80;85.00;;;;;;5024247;28;20034;-70
2021/05/07 02:14:42;;;;;;;29.58;20.60;;;4.80;84.90;;;;;;5027425;28;20124;-70
2021/05/07 02:17:08;;;;;;;26.63;19.83;;;4.80;85.00;;;;;;5029394;28;20038;-70
2021/05/07 02:19:33;;;;;;;27.38;19.70;;;4.80;85.00;;;;;;5019452;28;20041;-71
2021/05/07 02:21:59;;;;;;;32.75;21.77;;;4.80;84.90;;;;;;5019943;28;20046;-69
2021/05/07 02:24:25;;;;;;;27.48;20.15;;;4.80;84.90;;;;;;5023486;28;20030;-69
2021/05/07 02:26:50;;;;;;;26.92;19.70;;;4.90;85.00;;;;;;5019297;28;20053;-71
2021/05/07 02:29:17;;;;;;;27.67;19.95;;;5.00;84.90;;;;;;5022988;28;20104;-69
2021/05/07 02:31:43;;;;;;;27.52;20.48;;;5.00;84.80;;;;;;5025633;28;20505;-70
2021/05/07 02:34:10;;;;;;;28.95;21.17;;;5.10;84.50;;;;;;5020095;28;20595;-70
2021/05/07 02:36:36;;;;;;;28.20;19.92;;;5.10;84.40;;;;;;5024069;28;20034;-70
2021/05/07 02:39:04;;;;;;;28.52;20.17;;;5.20;84.20;;;;;;5023317;28;20037;-72
2021/05/07 02:41:29;;;;;;;33.25;21.38;;;5.20;84.00;;;;;;5021784;28;20037;-70
2021/05/07 02:43:55;;;;;;;30.00;21.05;;;5.20;84.30;;;;;;5023856;28;20136;-69
2021/05/07 02:46:21;;;;;;;35.15;22.80;;;5.40;84.70;;;;;;5019152;28;20034;-71
2021/05/07 02:48:46;;;;;;;31.20;23.20;;;5.40;85.40;;;;;;5017561;28;20030;-70
2021/05/07 02:51:12;;;;;;;34.17;22.60;;;5.40;85.20;;;;;;5025963;28;20421;-70
2021/05/07 02:53:38;;;;;;;31.02;21.55;;;5.40;85.60;;;;;;5034055;28;20484;-69
2021/05/07 02:56:03;;;;;;;29.92;21.83;;;5.50;85.60;;;;;;5019856;28;20034;-71
2021/05/07 02:58:29;;;;;;;32.50;24.25;;;5.50;85.70;;;;;;5005348;28;20121;-72
2021/05/07 03:00:55;;;;;;;37.75;29.85;;;5.40;85.50;;;;;;5023093;28;20030;-70
2021/05/07 03:03:20;;;;;;;40.78;33.85;;;5.50;85.70;;;;;;5023095;28;20034;-69
2021/05/07 03:05:46;;;;;;;43.60;31.10;;;5.50;85.80;;;;;;5022896;28;20033;-70
2021/05/07 03:08:12;;;;;;;35.03;28.23;;;5.50;85.80;;;;;;5023788;28;20083;-73
2021/05/07 03:10:37;;;;;;;36.72;26.02;;;5.50;86.00;;;;;;5027946;28;20407;-74
2021/05/07 03:13:03;;;;;;;35.75;26.30;;;5.60;86.10;;;;;;5020786;28;20034;-69
2021/05/07 03:15:29;;;;;;;32.80;25.50;;;5.50;86.20;;;;;;5018502;28;20038;-71
2021/05/07 03:17:55;;;;;;;32.10;24.10;;;5.50;86.70;;;;;;5013882;28;20037;-72
2021/05/07 03:20:22;;;;;;;35.33;23.77;;;5.50;86.50;;;;;;5027265;28;20049;-69
2021/05/07 03:22:47;;;;;;;30.83;23.80;;;5.50;86.80;;;;;;5023512;28;20044;-71
2021/05/07 03:25:14;;;;;;;30.50;21.02;;;5.50;86.90;;;;;;5017782;28;20037;-69
2021/05/07 03:27:40;;;;;;;24.83;19.05;;;5.50;86.90;;;;;;5022828;28;20041;-69
2021/05/07 03:30:06;;;;;;;25.70;17.17;;;5.50;86.70;;;;;;5017102;28;20034;-72
2021/05/07 03:32:32;;;;;;;21.08;14.85;;;5.50;86.50;;;;;;5009461;28;20033;-69
2021/05/07 03:34:58;;;;;;;20.25;13.68;;;5.50;86.40;;;;;;5022247;28;20068;-69
2021/05/07 03:37:23;;;;;;;22.02;13.52;;;5.40;86.40;;;;;;5028020;28;20045;-72
2021/05/07 03:39:50;;;;;;;22.60;12.80;;;5.40;86.40;;;;;;5019909;28;20137;-70
2021/05/07 03:42:16;;;;;;;21.83;13.60;;;5.40;86.40;;;;;;5021949;28;20083;-69
2021/05/07 03:44:41;;;;;;;18.35;11.77;;;5.40;86.40;;;;;;5021123;28;20469;-70
2021/05/07 03:47:07;;;;;;;17.40;11.73;;;5.40;86.40;;;;;;5017397;28;20099;-69
2021/05/07 03:49:32;;;;;;;18.65;12.43;;;5.50;86.40;;;;;;5024673;28;20029;-73
2021/05/07 03:51:59;;;;;;;18.65;12.15;;;5.60;86.60;;;;;;5024432;28;20060;-70
2021/05/07 03:54:24;;;;;;;20.88;13.60;;;5.60;86.40;;;;;;5021683;28;20482;-71
2021/05/07 03:56:50;;;;;;;20.75;13.48;;;5.60;86.50;;;;;;5023942;28;20037;-71
2021/05/07 03:59:15;;;;;;;23.10;13.50;;;5.60;86.50;;;;;;5018454;28;20037;-69
2021/05/07 04:01:41;;;;;;;20.40;12.15;;;5.60;86.50;;;;;;5020264;28;20067;-72
2021/05/07 04:04:08;;;;;;;22.00;12.98;;;5.60;86.50;;;;;;5019723;28;20083;-69
2021/05/07 04:06:35;;;;;;;21.02;12.70;;;5.60;86.50;;;;;;5017371;28;20049;-69
2021/05/07 04:09:09;;;;;;;16.90;11.90;;;5.60;86.60;;;;;;5018704;28;20040;-71
2021/05/07 04:14:00;;;;;;;21.77;12.18;;;5.60;86.60;;;;;;5015090;28;20037;-70
2021/05/07 04:16:25;;;;;;;19.77;11.95;;;5.60;86.60;;;;;;5017944;28;20058;-75
2021/05/07 04:18:55;;;;;;;19.50;11.73;;;5.60;86.70;;;;;;5021526;28;20037;-69
2021/05/07 04:21:22;;;;;;;15.90;10.32;;;5.50;86.60;;;;;;5017886;28;20114;-70
2021/05/07 04:23:48;;;;;;;15.30;10.25;;;5.60;86.40;;;;;;5019123;28;20083;-71
2021/05/07 04:26:14;;;;;;;17.02;11.23;;;5.50;86.20;;;;;;5016720;28;20021;-70
2021/05/07 04:28:39;;;;;;;17.35;10.48;;;5.50;86.10;;;;;;5009000;28;20041;-69
2021/05/07 04:31:05;;;;;;;20.67;11.93;;;5.40;86.30;;;;;;5004304;28;20074;-73
2021/05/07 04:33:31;;;;;;;15.60;10.85;;;5.50;86.40;;;;;;5011924;28;20041;-70
2021/05/07 04:35:56;;;;;;;20.08;11.55;;;5.50;86.40;;;;;;5014230;28;20036;-71
2021/05/07 04:38:22;;;;;;;16.13;11.13;;;5.50;86.60;;;;;;5015996;28;20061;-71
2021/05/07 04:40:48;;;;;;;16.58;10.57;;;5.50;86.60;;;;;;5001399;28;20680;-70
2021/05/07 04:43:13;;;;;;;19.45;11.45;;;5.60;86.40;;;;;;5014867;28;20030;-72
2021/05/07 04:45:40;;;;;;;18.80;10.98;;;5.60;86.40;;;;;;5017885;28;20029;-70
2021/05/07 04:48:13;;;;;;;17.73;11.27;;;5.60;86.30;;;;;;5016226;28;20458;-71
2021/05/07 04:50:40;;;;;;;16.55;10.95;;;5.70;86.30;;;;;;5006193;28;20096;-73
2021/05/07 04:53:06;;;;;;;16.15;10.68;;;5.70;86.30;;;;;;5008449;28;20057;-72
2021/05/07 04:55:32;;;;;;;16.35;10.82;;;5.70;86.20;;;;;;5014001;28;20040;-70
2021/05/07 04:57:58;;;;;;;16.98;9.93;;;5.80;86.10;;;;;;5015949;28;20096;-71
2021/05/07 05:00:23;;;;;;;14.65;9.15;;;5.90;85.90;;;;;;5003509;28;20113;-71
2021/05/07 05:02:49;;;;;;;15.15;10.10;;;6.00;85.50;;;;;;5011748;28;20089;-72
2021/05/07 05:05:17;;;;;;;14.38;9.77;;;6.20;85.40;;;;;;5007096;28;20037;-70
2021/05/07 05:07:52;;;;;;;15.40;10.02;;;6.20;85.00;;;;;;4990532;28;20100;-70
2021/05/07 05:10:19;;;;;;;15.90;10.70;;;6.30;84.70;;;;;;4995892;28;20433;-70
2021/05/07 05:12:45;;;;;;;15.88;10.90;;;6.40;84.80;;;;;;5004180;28;20038;-72
2021/05/07 05:15:11;;;;;;;16.88;11.43;;;6.60;85.00;;;;;;5009501;28;20045;-70
2021/05/07 05:17:37;;;;;;;13.02;9.63;;;7.20;84.40;;;;;;5008827;28;20041;-72
2021/05/07 05:20:04;;;;;;;12.68;8.45;;;8.00;81.50;;;;;;5007501;28;20033;-73
2021/05/07 05:22:30;;;;;;;15.02;9.13;;;8.10;79.20;;;;;;4994272;28;20041;-72
2021/05/07 05:24:57;;;;;;;11.85;8.07;;;8.00;78.90;;;;;;4989771;28;20029;-70
2021/05/07 05:27:23;;;;;;;11.35;8.07;;;7.60;79.40;;;;;;4984771;28;20037;-72
2021/05/07 05:29:48;;;;;;;13.43;8.63;;;7.40;80.10;;;;;;4999058;28;20329;-69
2021/05/07 05:32:14;;;;;;;12.00;8.68;;;7.00;81.30;;;;;;5019011;28;20051;-73
2021/05/07 05:34:39;;;;;;;12.40;8.32;;;6.80;81.80;;;;;;5020360;28;20784;-68
2021/05/07 05:37:05;;;;;;;14.05;8.88;;;6.70;82.30;;;;;;5020327;28;20053;-65
2021/05/07 05:39:31;;;;;;;13.85;9.55;;;6.70;82.40;;;;;;5019919;28;20060;-69
2021/05/07 05:42:00;;;;;;;14.77;9.75;;;6.70;82.60;;;;;;5028118;28;20041;-66
2021/05/07 05:44:25;;;;;;;16.00;9.70;;;6.60;82.80;;;;;;5022510;28;20034;-65
2021/05/07 05:46:51;;;;;;;14.05;9.45;;;6.80;82.60;;;;;;5021461;28;20511;-68
2021/05/07 05:49:17;;;;;;;13.63;8.93;;;7.10;82.50;;;;;;5011483;28;20346;-67
2021/05/07 05:51:43;;;;;;;12.60;9.07;;;8.00;80.20;;;;;;5019504;28;20386;-67
2021/05/07 05:54:08;;;;;;;11.88;8.55;;;8.50;78.20;;;;;;5032125;28;20473;-66
2021/05/07 05:56:34;;;;;;;11.90;8.38;;;8.60;77.60;;;;;;5020008;28;20650;-66
2021/05/07 05:59:00;;;;;;;12.43;8.48;;;8.60;77.80;;;;;;5017354;28;20057;-69
2021/05/07 06:01:25;;;;;;;13.07;8.55;;;8.60;78.00;;;;;;5000774;28;20060;-66
2021/05/07 06:03:51;;;;;;;11.75;8.77;;;8.60;77.70;;;;;;4998409;28;20029;-68
2021/05/07 06:06:17;;;;;;;13.60;9.20;;;8.50;77.60;;;;;;5017507;28;20033;-67
2021/05/07 06:08:42;;;;;;;14.07;9.73;;;8.30;77.30;;;;;;5006897;28;20038;-66
2021/05/07 06:11:08;;;;;;;13.63;9.38;;;8.10;78.00;;;;;;5014509;28;20489;-70
2021/05/07 06:13:34;;;;;;;14.32;9.43;;;8.10;78.40;;;;;;5013588;28;20564;-66
2021/05/07 06:16:00;;;;;;;13.88;9.10;;;8.30;78.90;;;;;;5012156;28;20412;-66
2021/05/07 06:18:26;;;;;;;14.23;9.60;;;8.20;77.70;;;;;;5022458;28;20040;-66
2021/05/07 06:20:51;;;;;;;13.35;9.85;;;8.30;77.90;;;;;;5016181;28;20065;-70
2021/05/07 06:23:17;;;;;;;13.43;9.98;;;8.40;77.70;;;;;;5015405;28;20041;-68
2021/05/07 06:25:43;;;;;;;14.30;9.80;;;8.40;77.50;;;;;;5020584;28;20069;-67
2021/05/07 06:28:09;;;;;;;13.32;10.00;;;8.40;77.60;;;;;;5016952;28;20072;-66
2021/05/07 06:30:34;;;;;;;14.45;10.27;;;8.40;77.40;;;;;;5016910;28;20061;-69
2021/05/07 06:33:00;;;;;;;13.07;9.95;;;8.50;77.70;;;;;;5022968;28;20351;-69
2021/05/07 06:35:26;;;;;;;15.15;9.45;;;8.60;77.70;;;;;;5019933;28;20080;-69
2021/05/07 06:37:51;;;;;;;12.23;9.50;;;8.60;76.70;;;;;;5024526;28;20108;-67
2021/05/07 06:40:17;;;;;;;17.73;10.52;;;8.80;76.50;;;;;;5013566;28;20037;-67
2021/05/07 06:42:46;;;;;;;14.38;10.60;;;8.70;75.90;;;;;;5012729;28;20473;-69
2021/05/07 06:45:13;;;;;;;13.38;9.73;;;8.80;76.30;;;;;;5012846;28;20038;-68
2021/05/07 06:47:39;;;;;;;14.05;10.38;;;8.80;75.90;;;;;;5014863;28;20497;-67
2021/05/07 06:50:06;;;;;;;13.55;9.93;;;9.00;75.60;;;;;;5019802;28;20025;-72
2021/05/07 06:52:32;;;;;;;13.85;9.85;;;9.10;75.70;;;;;;5005999;28;20105;-67
2021/05/07 06:54:58;;;;;;;16.63;10.27;;;9.00;73.40;;;;;;4995647;28;20501;-67
2021/05/07 06:57:24;;;;;;;13.90;9.73;;;9.10;74.00;;;;;;4995460;28;20043;-69
2021/05/07 06:59:50;;;;;;;15.23;9.88;;;9.10;74.80;;;;;;4993983;28;20092;-65
2021/05/07 07:02:17;;;;;;;14.73;10.25;;;9.10;73.80;;;;;;5005380;28;20469;-69
2021/05/07 07:04:43;;;;;;;14.15;9.88;;;9.10;73.80;;;;;;5022436;28;20033;-66
2021/05/07 07:07:08;;;;;;;13.13;10.15;;;9.20;73.00;;;;;;5016147;28;20041;-65
2021/05/07 07:09:34;;;;;;;13.05;9.27;;;9.20;72.00;;;;;;5021713;28;20044;-70
2021/05/07 07:12:00;;;;;;;11.98;8.95;;;9.30;72.60;;;;;;5026400;28;20072;-65
2021/05/07 07:14:26;;;;;;;12.73;9.13;;;9.60;71.10;;;;;;5026169;28;20030;-67
2021/05/07 07:16:51;;;;;;;14.48;9.23;;;9.80;70.70;;;;;;5013680;28;20044;-69
2021/05/07 07:19:17;;;;;;;12.27;8.98;;;10.20;70.90;;;;;;5019277;28;21687;-66
2021/05/07 07:21:42;;;;;;;13.13;9.07;;;9.90;69.20;;;;;;5015137;28;20026;-70
2021/05/07 07:24:09;;;;;;;14.68;9.60;;;10.00;68.80;;;;;;5021856;28;20116;-65
2021/05/07 07:26:34;;;;;;;13.60;10.20;;;10.10;68.80;;;;;;5022691;28;20037;-66
2021/05/07 07:29:00;;;;;;;13.55;9.30;;;10.10;69.60;;;;;;5025914;28;20516;-65
2021/05/07 07:31:26;;;;;;;11.98;9.23;;;9.90;69.40;;;;;;5010495;28;20045;-65
2021/05/07 07:33:51;;;;;;;14.38;10.02;;;9.80;69.90;;;;;;5022602;28;20045;-65
2021/05/07 07:36:17;;;;;;;13.10;9.82;;;9.70;70.30;;;;;;5018371;28;20029;-67
2021/05/07 07:38:43;;;;;;;13.65;10.18;;;9.50;70.60;;;;;;5019852;28;20123;-70
2021/05/07 07:41:08;;;;;;;15.63;10.65;;;9.50;70.20;;;;;;5026051;28;20469;-66
2021/05/07 07:43:34;;;;;;;12.25;8.98;;;9.60;70.00;;;;;;5026892;28;20064;-67
2021/05/07 07:46:01;;;;;;;11.55;8.43;;;9.40;68.80;;;;;;5025357;28;20037;-67
2021/05/07 07:48:26;;;;;;;12.93;8.93;;;9.20;69.60;;;;;;5007891;28;20477;-69
2021/05/07 07:50:52;;;;;;;13.90;8.85;;;9.30;70.70;;;;;;5024478;28;20046;-68
2021/05/07 07:53:18;;;;;;;11.77;7.80;;;9.30;69.50;;;;;;5028592;28;20064;-67
2021/05/07 07:55:43;;;;;;;10.50;7.70;;;9.70;68.80;;;;;;5026487;28;20042;-66
2021/05/07 07:58:09;;;;;;;11.48;8.10;;;10.00;66.50;;;;;;5029266;28;20041;-66
2021/05/07 08:00:35;;;;;;;11.73;7.85;;;10.20;66.40;;;;;;5023598;28;20096;-65
2021/05/07 08:03:01;;;;;;;12.10;8.73;;;10.30;64.90;;;;;;5021959;28;20037;-68
2021/05/07 08:05:26;;;;;;;13.18;8.52;;;10.40;65.00;;;;;;5041284;28;20461;-67
2021/05/07 08:07:57;;;;;;;11.52;7.15;;;10.80;65.70;;;;;;5023091;28;20040;-69
2021/05/07 08:10:22;;;;;;;10.82;7.32;;;11.00;62.50;;;;;;5019815;28;20048;-66
2021/05/07 08:12:48;;;;;;;10.68;7.03;;;11.20;62.60;;;;;;5023680;28;20029;-66
2021/05/07 08:15:14;;;;;;;10.50;7.68;;;11.30;61.00;;;;;;5024346;28;20060;-67
2021/05/07 08:17:40;;;;;;;10.48;7.47;;;10.90;59.80;;;;;;5026637;28;20111;-66
2021/05/07 08:20:07;;;;;;;11.40;8.55;;;10.80;62.00;;;;;;5031550;28;20029;-66
2021/05/07 08:22:33;;;;;;;10.45;7.95;;;11.10;64.40;;;;;;5025921;28;20030;-65
2021/05/07 08:24:59;;;;;;;11.88;9.02;;;10.80;63.50;;;;;;5024992;28;20034;-66
2021/05/07 08:27:26;;;;;;;12.15;9.45;;;10.60;64.40;;;;;;5024364;28;20044;-66
2021/05/07 08:29:51;;;;;;;11.30;9.45;;;10.40;64.40;;;;;;5019449;28;20044;-68
2021/05/07 08:32:18;;;;;;;11.35;8.57;;;10.40;64.70;;;;;;5016195;28;20556;-67
2021/05/07 08:34:45;;;;;;;11.10;9.13;;;10.60;64.00;;;;;;5021796;28;20034;-69
2021/05/07 08:37:11;;;;;;;11.35;8.32;;;11.00;62.30;;;;;;5016650;28;20791;-66
2021/05/07 08:39:37;;;;;;;10.98;7.40;;;11.50;61.60;;;;;;5015795;28;20117;-67
2021/05/07 08:42:06;;;;;;;10.00;7.10;;;11.40;59.20;;;;;;5005240;28;20536;-67
2021/05/07 08:44:32;;;;;;;10.38;7.20;;;11.00;58.10;;;;;;5027250;28;20041;-67
2021/05/07 08:47:00;;;;;;;10.25;7.47;;;10.90;59.70;;;;;;5026395;28;20073;-68
2021/05/07 08:49:26;;;;;;;10.95;7.45;;;11.20;57.90;;;;;;5024009;28;20475;-70
2021/05/07 08:51:51;;;;;;;10.32;8.35;;;11.60;59.20;;;;;;5026918;28;20493;-68
2021/05/07 08:54:17;;;;;;;11.45;9.65;;;11.60;59.30;;;;;;5027976;28;20057;-67
2021/05/07 08:56:45;;;;;;;11.73;9.68;;;11.60;59.40;;;;;;5014366;28;20033;-68
2021/05/07 08:59:11;;;;;;;12.32;9.30;;;11.20;59.70;;;;;;5002144;28;20035;-67
2021/05/07 09:01:47;;;;;;;12.05;9.05;;;11.10;59.60;;;;;;5011129;28;20033;-67
2021/05/07 09:04:14;;;;;;;11.93;7.50;;;11.50;58.70;;;;;;5023284;28;20030;-67
2021/05/07 09:06:50;;;;;;;10.18;6.88;;;11.60;57.00;;;;;;5027104;28;20042;-67
2021/05/07 09:09:28;;;;;;;10.23;7.50;;;11.50;53.70;;;;;;5001995;28;20038;-68
2021/05/07 09:11:55;;;;;;;11.35;8.48;;;11.60;55.70;;;;;;5017012;28;20045;-68
2021/05/07 09:14:22;;;;;;;14.77;9.50;;;12.10;56.10;;;;;;5028213;28;20070;-67
2021/05/07 09:16:51;;;;;;;14.23;10.30;;;12.20;55.50;;;;;;5018083;28;20037;-68
2021/05/07 09:19:18;;;;;;;12.10;10.27;;;12.30;57.90;;;;;;5021942;28;20522;-68
2021/05/07 09:21:44;;;;;;;11.85;9.13;;;11.90;57.60;;;;;;5027402;28;20049;-67
2021/05/07 09:24:10;;;;;;;14.00;9.60;;;11.70;58.30;;;;;;5029093;28;20044;-67
2021/05/07 09:26:49;;;;;;;12.70;10.32;;;11.90;58.70;;;;;;5028931;28;20441;-68
2021/05/07 09:29:21;;;;;;;12.50;9.43;;;12.40;57.30;;;;;;5010947;28;20049;-68
2021/05/07 09:31:49;;;;;;;11.05;8.68;;;12.50;56.50;;;;;;5026014;28;20127;-67
2021/05/07 09:34:15;;;;;;;11.35;6.82;;;12.60;54.90;;;;;;5023846;28;20461;-72
2021/05/07 09:36:41;;;;;;;9.02;6.93;;;12.20;52.80;;;;;;5024013;28;20052;-67
2021/05/07 09:39:17;;;;;;;10.43;7.13;;;11.90;53.50;;;;;;5009559;28;20462;-68
2021/05/07 09:41:45;;;;;;;9.90;7.97;;;11.80;53.40;;;;;;5027764;28;20038;-69
2021/05/07 09:44:19;;;;;;;10.52;7.82;;;12.20;54.30;;;;;;5025144;28;20461;-71
2021/05/07 09:46:46;;;;;;;10.93;8.20;;;12.60;55.50;;;;;;5029007;28;20038;-69
2021/05/07 09:49:31;;;;;;;11.90;8.75;;;12.30;54.80;;;;;;5009354;28;20052;-68
2021/05/07 09:51:58;;;;;;;9.65;7.57;;;12.40;56.20;;;;;;5006216;28;20135;-68
2021/05/07 09:54:25;;;;;;;11.43;7.85;;;12.50;54.20;;;;;;5001879;28;20121;-69
2021/05/07 09:56:51;;;;;;;10.82;8.15;;;12.10;54.90;;;;;;5001495;28;20432;-67
2021/05/07 09:59:18;;;;;;;9.45;7.00;;;12.60;52.90;;;;;;5007270;28;20037;-69
2021/05/07 10:01:45;;;;;;;8.52;6.07;;;12.40;53.10;;;;;;5029119;28;20129;-70
2021/05/07 10:04:12;;;;;;;8.35;5.80;;;12.50;51.60;;;;;;5034990;28;20064;-69
2021/05/07 10:06:39;;;;;;;8.25;6.20;;;12.80;49.60;;;;;;5032217;28;20500;-69
2021/05/07 10:09:06;;;;;;;8.65;6.53;;;13.20;50.50;;;;;;5022381;28;20080;-68
2021/05/07 10:11:38;;;;;;;9.57;6.68;;;13.20;48.70;;;;;;5022573;28;20049;-68
2021/05/07 10:14:11;;;;;;;9.93;7.78;;;12.80;49.70;;;;;;5006840;28;20157;-67
2021/05/07 10:16:37;;;;;;;10.02;7.85;;;12.40;53.90;;;;;;5004579;28;20038;-68
2021/05/07 10:19:11;;;;;;;9.93;7.90;;;11.80;56.80;;;;;;5003170;28;20857;-69
2021/05/07 10:21:43;;;;;;;9.45;7.40;;;12.00;55.20;;;;;;4998695;28;20121;-68
2021/05/07 10:24:13;;;;;;;9.45;7.32;;;11.80;54.20;;;;;;5009699;28;20026;-69
2021/05/07 10:26:44;;;;;;;9.43;6.80;;;12.40;53.80;;;;;;5026486;28;20079;-71
2021/05/07 10:29:27;;;;;;;11.68;6.82;;;13.10;50.60;;;;;;5010006;28;20073;-68
2021/05/07 10:31:57;;;;;;;10.35;5.88;;;13.40;49.80;;;;;;5006152;28;20045;-69
2021/05/07 10:34:24;;;;;;;8.45;6.32;;;14.00;47.10;;;;;;5007338;28;20056;-72
2021/05/07 10:36:51;;;;;;;11.07;6.32;;;14.50;46.40;;;;;;5004460;28;20354;-68
2021/05/07 10:39:17;;;;;;;8.38;6.03;;;14.50;45.80;;;;;;5019706;28;20030;-68
2021/05/07 10:41:43;;;;;;;8.43;5.70;;;13.60;49.10;;;;;;5026190;28;20048;-70
2021/05/07 10:44:09;;;;;;;7.47;5.53;;;13.70;47.40;;;;;;5029189;28;20078;-68
2021/05/07 10:46:35;;;;;;;9.45;5.82;;;14.10;46.40;;;;;;5034329;28;20033;-69
2021/05/07 10:49:03;;;;;;;9.63;5.43;;;14.40;45.00;;;;;;5024651;28;20034;-70
2021/05/07 10:51:29;;;;;;;9.15;4.40;;;14.30;45.50;;;;;;5017951;28;20037;-67
2021/05/07 10:54:13;;;;;;;7.68;3.97;;;13.80;43.00;;;;;;5015747;28;20026;-69
2021/05/07 10:56:41;;;;;;;7.60;4.15;;;13.60;42.80;;;;;;5015190;28;20056;-68
2021/05/07 10:59:20;;;;;;;6.68;3.88;;;13.80;43.40;;;;;;5012671;28;20026;-70
2021/05/07 11:02:02;;;;;;;7.03;4.47;;;13.80;43.40;;;;;;5009426;28;20038;-68
2021/05/07 11:04:44;;;;;;;7.85;4.90;;;14.10;46.10;;;;;;4995464;28;20041;-68
2021/05/07 11:07:10;;;;;;;7.75;4.53;;;14.20;45.10;;;;;;4994325;28;20031;-68
2021/05/07 11:09:35;;;;;;;9.63;4.53;;;14.90;43.40;;;;;;4999482;28;20093;-68
2021/05/07 11:12:04;;;;;;;6.85;3.78;;;14.90;43.80;;;;;;4991783;28;20038;-68
2021/05/07 11:14:34;;;;;;;8.07;4.78;;;15.20;43.30;;;;;;4996175;28;20116;-69
2021/05/07 11:17:00;;;;;;;6.80;4.13;;;15.30;43.50;;;;;;5002231;28;20034;-67
2021/05/07 11:19:29;;;;;;;5.93;3.38;;;15.40;43.40;;;;;;5018509;28;20049;-66
2021/05/07 11:22:07;;;;;;;5.78;3.28;;;14.40;41.30;;;;;;5021168;28;20129;-67
2021/05/07 11:24:41;;;;;;;5.85;3.33;;;14.30;39.80;;;;;;5006732;28;20041;-68
2021/05/07 11:27:22;;;;;;;5.82;3.70;;;14.60;41.10;;;;;;5002996;28;20121;-68
2021/05/07 11:29:53;;;;;;;8.25;3.88;;;14.40;40.90;;;;;;5006303;28;20482;-68
2021/05/07 11:32:23;;;;;;;6.82;4.03;;;14.90;41.70;;;;;;5003841;28;20034;-68
2021/05/07 11:35:00;;;;;;;7.85;4.43;;;15.10;40.90;;;;;;5001841;28;20025;-68
2021/05/07 11:37:27;;;;;;;6.55;4.10;;;14.80;43.80;;;;;;5009866;28;20088;-66
2021/05/07 11:40:08;;;;;;;6.55;4.30;;;14.10;43.30;;;;;;5026477;28;20033;-67
2021/05/07 11:42:44;;;;;;;8.65;4.72;;;14.10;43.30;;;;;;5020800;28;20041;-67
2021/05/07 11:45:22;;;;;;;7.93;4.55;;;14.60;43.40;;;;;;5021177;28;20808;-68
2021/05/07 11:47:48;;;;;;;7.05;4.15;;;14.60;42.30;;;;;;5021492;28;20060;-67
2021/05/07 11:50:21;;;;;;;7.07;4.20;;;14.60;42.30;;;;;;5024196;28;20483;-68
2021/05/07 11:52:49;;;;;;;7.93;4.50;;;14.60;42.00;;;;;;5021139;28;20061;-69
2021/05/07 11:55:17;;;;;;;7.22;4.97;;;15.00;42.20;;;;;;5027508;28;20103;-67
2021/05/07 11:57:43;;;;;;;8.02;4.60;;;15.00;43.80;;;;;;5005133;28;20029;-67
2021/05/07 12:00:10;;;;;;;7.40;4.28;;;14.50;43.50;;;;;;5023582;28;20394;-67
2021/05/07 12:02:37;;;;;;;8.13;4.60;;;14.60;42.40;;;;;;5040310;28;20141;-67
2021/05/07 12:05:03;;;;;;;8.77;4.40;;;14.20;43.40;;;;;;5026941;28;20116;-67
2021/05/07 12:07:32;;;;;;;7.28;4.57;;;14.20;42.00;;;;;;5020453;28;20045;-70
2021/05/07 12:09:59;;;;;;;8.13;4.07;;;14.20;43.00;;;;;;5008903;28;20030;-68
2021/05/07 12:12:29;;;;;;;6.47;4.00;;;14.70;42.60;;;;;;5007819;28;20047;-69
2021/05/07 12:15:11;;;;;;;7.78;4.10;;;14.30;42.80;;;;;;5023096;28;20022;-68
2021/05/07 12:17:41;;;;;;;7.60;4.53;;;14.50;41.40;;;;;;5022566;28;20038;-69
2021/05/07 12:20:08;;;;;;;7.47;4.28;;;14.60;43.80;;;;;;5020574;28;20416;-68
2021/05/07 12:22:34;;;;;;;8.23;4.03;;;15.10;40.50;;;;;;5022217;28;20052;-67
2021/05/07 12:25:16;;;;;;;6.05;3.75;;;15.00;41.50;;;;;;5021167;28;20421;-67
2021/05/07 12:27:43;;;;;;;7.53;4.32;;;15.00;42.90;;;;;;5019234;28;20349;-68
2021/05/07 12:30:15;;;;;;;7.63;4.28;;;15.00;43.40;;;;;;5028051;28;20040;-67
2021/05/07 12:33:06;;;;;;;7.78;4.03;;;15.10;42.50;;;;;;5022252;28;20124;-68
2021/05/07 12:35:43;;;;;;;6.60;3.88;;;14.80;43.80;;;;;;5012639;28;20038;-68
2021/05/07 12:38:25;;;;;;;7.30;4.43;;;15.10;42.30;;;;;;5026017;28;20026;-68
2021/05/07 12:40:54;;;;;;;6.95;4.22;;;15.10;41.50;;;;;;5023682;28;20041;-68
2021/05/07 12:43:21;;;;;;;7.05;4.05;;;15.40;42.70;;;;;;5021891;28;20239;-67
2021/05/07 12:45:48;;;;;;;6.47;3.80;;;15.70;43.10;;;;;;5029112;28;20367;-68